Time;durP1;ratioP1;P1;durP2;ratioP2;P2;SDS_P1;SDS_P2;PMS_P1;PMS_P2;Temp;Humidity;BMP_temperature;BMP_pressure;BME280_temperature;BME280_humidity;BME280_pressure;Samples;Min_cycle;Max_cycle;Signal;HPM_P1;HPM_P2
2023/05/08 00:00:03;;;;;;;;;;;;;;;13.89;100.00;102052.19;5029652;27;20334;-51
2023/05/08 00:02:28;;;;;;;;;;;;;;;13.88;100.00;102050.44;5022328;28;19936;-52
2023/05/08 00:04:54;;;;;;;;;;;;;;;13.88;100.00;102058.19;5019833;27;19930;-52
2023/05/08 00:07:19;;;;;;;;;;;;;;;13.85;100.00;102056.41;5023428;28;20347;-52
2023/05/08 00:09:44;;;;;;;;;;;;;;;13.86;100.00;102067.63;5019163;27;19925;-50
2023/05/08 00:12:10;;;;;;;;;;;;;;;13.84;100.00;102059.81;5020167;28;19928;-51
2023/05/08 00:14:35;;;;;;;;;;;;;;;13.84;100.00;102061.53;5019195;28;19921;-52
2023/05/08 00:17:01;;;;;;;;;;;;;;;13.84;100.00;102058.94;5022152;27;19929;-54
2023/05/08 00:19:26;;;;;;;;;;;;;;;13.83;100.00;102054.56;5020729;28;19918;-49
2023/05/08 00:21:51;;;;;;;;;;;;;;;13.83;100.00;102058.06;5019977;28;19921;-49
2023/05/08 00:24:16;;;;;;;;;;;;;;;13.83;100.00;102055.47;5022621;27;20007;-52
2023/05/08 00:26:43;;;;;;;;;;;;;;;13.81;100.00;102046.78;5037139;28;19929;-51
2023/05/08 00:29:08;;;;;;;;;;;;;;;13.79;100.00;102050.16;5021146;28;20344;-51
2023/05/08 00:31:33;;;;;;;;;;;;;;;13.77;100.00;102052.69;5019548;28;19925;-49
2023/05/08 00:33:59;;;;;;;;;;;;;;;13.78;100.00;102058.72;5021513;28;19928;-50
2023/05/08 00:36:24;;;;;;;;;;;;;;;13.77;100.00;102055.28;5021580;27;20283;-48
2023/05/08 00:38:50;;;;;;;;;;;;;;;13.76;100.00;102053.50;5021131;27;19921;-52
2023/05/08 00:41:15;;;;;;;;;;;;;;;13.76;100.00;102053.50;5022476;27;20446;-51
2023/05/08 00:43:40;;;;;;;;;;;;;;;13.75;100.00;102054.31;5023234;27;19940;-50
2023/05/08 00:46:08;;;;;;;;;;;;;;;13.76;100.00;102044.84;5022566;27;19990;-53
2023/05/08 00:48:34;;;;;;;;;;;;;;;13.74;100.00;102044.81;5023383;28;19972;-51
2023/05/08 00:51:01;;;;;;;;;;;;;;;13.74;100.00;102043.94;5020688;28;19957;-51
2023/05/08 00:53:27;;;;;;;;;;;;;;;13.76;100.00;102044.84;5021823;27;20368;-52
2023/05/08 00:55:52;;;;;;;;;;;;;;;13.74;100.00;102038.75;5033952;28;20013;-52
2023/05/08 00:58:21;;;;;;;;;;;;;;;13.73;100.00;102043.06;5020574;27;20004;-52
2023/05/08 01:00:48;;;;;;;;;;;;;;;13.72;100.00;102040.44;5022594;27;20405;-52
2023/05/08 01:03:14;;;;;;;;;;;;;;;13.71;100.00;102042.13;5022649;28;20056;-52
2023/05/08 01:05:39;;;;;;;;;;;;;;;13.72;100.00;102046.47;5022426;27;20401;-50
2023/05/08 01:08:05;;;;;;;;;;;;;;;13.70;100.00;102048.09;5020206;28;19960;-52
2023/05/08 01:10:41;;;;;;;;;;;;;;;13.69;100.00;102039.47;5018980;28;20488;-52
2023/05/08 01:13:25;;;;;;;;;;;;;;;13.68;100.00;102040.31;5021583;27;19921;-50
2023/05/08 01:15:53;;;;;;;;;;;;;;;13.69;100.00;102042.06;5020292;27;19929;-52
2023/05/08 01:18:22;;;;;;;;;;;;;;;13.68;100.00;102039.44;5019779;28;19921;-53
2023/05/08 01:20:52;;;;;;;;;;;;;;;13.69;100.00;102036.03;5021783;28;19917;-52
2023/05/08 01:23:20;;;;;;;;;;;;;;;13.69;100.00;102036.03;5021293;28;19921;-49
2023/05/08 01:25:48;;;;;;;;;;;;;;;13.69;100.00;102033.44;5018824;28;20043;-49
2023/05/08 01:28:26;;;;;;;;;;;;;;;13.71;100.00;102036.06;5020859;28;19977;-49
2023/05/08 01:31:09;;;;;;;;;;;;;;;13.71;100.00;102042.13;5022276;28;20000;-48
2023/05/08 01:33:45;;;;;;;;;;;;;;;13.71;100.00;102039.56;5023967;27;20003;-51
2023/05/08 01:36:16;;;;;;;;;;;;;;;13.71;100.00;102044.72;5018910;28;20073;-49
2023/05/08 01:38:46;;;;;;;;;;;;;;;13.72;100.00;102043.00;5019777;28;20026;-53
2023/05/08 01:41:15;;;;;;;;;;;;;;;13.71;100.00;102039.56;5021064;28;19917;-53
2023/05/08 01:43:52;;;;;;;;;;;;;;;13.70;100.00;102040.34;5019700;28;20238;-52
2023/05/08 01:46:25;;;;;;;;;;;;;;;13.69;100.00;102036.03;5021028;27;19921;-51
2023/05/08 01:48:55;;;;;;;;;;;;;;;13.69;100.00;102036.91;5019984;28;20490;-52
2023/05/08 01:51:26;;;;;;;;;;;;;;;13.69;100.00;102043.78;5018932;27;19924;-51
2023/05/08 01:53:55;;;;;;;;;;;;;;;13.69;100.00;102036.03;5020564;28;20050;-52
2023/05/08 01:56:21;;;;;;;;;;;;;;;13.68;100.00;102042.03;5016674;27;19925;-48
2023/05/08 01:58:48;;;;;;;;;;;;;;;13.67;100.00;102042.84;5016882;27;19972;-52
2023/05/08 02:01:14;;;;;;;;;;;;;;;13.66;100.00;102046.28;5019164;28;20632;-48
2023/05/08 02:03:40;;;;;;;;;;;;;;;13.65;100.00;102047.06;5019237;28;19928;-51
2023/05/08 02:06:07;;;;;;;;;;;;;;;13.66;100.00;102054.91;5020444;28;19951;-52
2023/05/08 02:08:32;;;;;;;;;;;;;;;13.65;100.00;102050.56;5020351;28;19994;-50
2023/05/08 02:10:58;;;;;;;;;;;;;;;13.64;100.00;102043.59;5021382;27;20145;-49
2023/05/08 02:13:24;;;;;;;;;;;;;;;13.65;100.00;102044.47;5022026;28;19928;-49
2023/05/08 02:15:52;;;;;;;;;;;;;;;13.63;100.00;102044.44;5019101;28;19924;-49
2023/05/08 02:18:22;;;;;;;;;;;;;;;13.63;100.00;102048.72;5020258;28;19921;-50
2023/05/08 02:20:51;;;;;;;;;;;;;;;13.63;100.00;102053.91;5020462;28;20371;-48
2023/05/08 02:23:17;;;;;;;;;;;;;;;13.62;100.00;102054.72;5020727;28;19928;-51
2023/05/08 02:25:43;;;;;;;;;;;;;;;13.63;100.00;102056.47;5087269;27;20031;-52
2023/05/08 02:28:09;;;;;;;;;;;;;;;13.63;100.00;102054.78;5020319;28;19924;-50
2023/05/08 02:30:35;;;;;;;;;;;;;;;13.64;100.00;102050.47;5020278;28;19925;-49
2023/05/08 02:33:01;;;;;;;;;;;;;;;13.61;100.00;102051.28;5018661;28;19921;-49
2023/05/08 02:35:28;;;;;;;;;;;;;;;13.62;100.00;102052.16;5015694;28;20009;-49
2023/05/08 02:37:55;;;;;;;;;;;;;;;13.59;100.00;102049.44;5026191;28;19921;-51
2023/05/08 02:40:22;;;;;;;;;;;;;;;13.56;100.00;102055.41;5020593;28;19917;-53
2023/05/08 02:42:47;;;;;;;;;;;;;;;13.56;100.00;102068.31;5020366;28;19924;-51
2023/05/08 02:45:13;;;;;;;;;;;;;;;13.55;100.00;102057.94;5020765;28;19929;-51
2023/05/08 02:47:42;;;;;;;;;;;;;;;13.54;100.00;102071.69;5016635;28;19929;-52
2023/05/08 02:50:07;;;;;;;;;;;;;;;13.52;100.00;102068.16;5022062;27;20035;-49
2023/05/08 02:52:39;;;;;;;;;;;;;;;13.52;100.00;102058.69;5018986;28;20479;-53
2023/05/08 02:55:07;;;;;;;;;;;;;;;13.50;100.00;102059.47;5020292;28;19949;-52
2023/05/08 02:57:36;;;;;;;;;;;;;;;13.51;100.00;102066.41;5019073;28;20056;-52
2023/05/08 03:00:17;;;;;;;;;;;;;;;13.51;100.00;102050.88;5019993;28;20045;-52
2023/05/08 03:02:49;;;;;;;;;;;;;;;13.52;100.00;102058.69;5017737;27;20015;-53
2023/05/08 03:05:19;;;;;;;;;;;;;;;13.50;100.00;102052.59;5019269;28;19921;-53
2023/05/08 03:07:48;;;;;;;;;;;;;;;13.49;100.00;102062.88;5020459;28;19982;-51
2023/05/08 03:10:15;;;;;;;;;;;;;;;13.48;100.00;102061.13;5019029;28;20020;-50
2023/05/08 03:12:43;;;;;;;;;;;;;;;13.48;100.00;102068.88;5019409;28;19985;-53
2023/05/08 03:15:18;;;;;;;;;;;;;;;13.47;100.00;102061.94;5020458;28;19917;-51
2023/05/08 03:17:45;;;;;;;;;;;;;;;13.47;100.00;102059.34;5020140;28;19924;-53
2023/05/08 03:20:13;;;;;;;;;;;;;;;13.46;100.00;102057.59;5020677;28;19924;-52
2023/05/08 03:22:40;;;;;;;;;;;;;;;13.44;100.00;102060.13;5019640;28;19918;-52
2023/05/08 03:25:08;;;;;;;;;;;;;;;13.43;100.00;102052.34;5020071;28;19938;-50
2023/05/08 03:27:34;;;;;;;;;;;;;;;13.40;100.00;102050.50;5019767;28;19929;-53
2023/05/08 03:30:00;;;;;;;;;;;;;;;13.39;100.00;102059.97;5020229;28;19917;-51
2023/05/08 03:32:27;;;;;;;;;;;;;;;13.36;100.00;102056.41;5020125;28;19960;-53
2023/05/08 03:34:54;;;;;;;;;;;;;;;13.33;100.00;102056.28;5018742;28;19921;-51
2023/05/08 03:37:19;;;;;;;;;;;;;;;13.31;100.00;102051.06;5019061;28;19970;-52
2023/05/08 03:39:45;;;;;;;;;;;;;;;13.28;100.00;102047.50;5029900;28;20345;-52
2023/05/08 03:42:19;;;;;;;;;;;;;;;13.24;100.00;102046.53;5019881;28;20003;-49
2023/05/08 03:44:45;;;;;;;;;;;;;;;13.24;100.00;102050.81;5019561;28;19944;-51
2023/05/08 03:47:10;;;;;;;;;;;;;;;13.19;100.00;102039.38;5020350;28;20410;-50
2023/05/08 03:49:37;;;;;;;;;;;;;;;13.15;100.00;102040.97;5018551;28;19921;-49
2023/05/08 03:52:02;;;;;;;;;;;;;;;13.12;100.00;102046.03;5019257;28;19964;-52
2023/05/08 03:54:29;;;;;;;;;;;;;;;13.10;100.00;102040.81;5020935;28;19963;-49
2023/05/08 03:56:54;;;;;;;;;;;;;;;13.07;100.00;102042.41;5019717;28;20001;-49
2023/05/08 03:59:27;;;;;;;;;;;;;;;13.08;100.00;102042.44;5019198;28;20375;-50
2023/05/08 04:02:02;;;;;;;;;;;;;;;13.08;100.00;102044.16;5017994;28;19957;-50
2023/05/08 04:04:39;;;;;;;;;;;;;;;13.06;100.00;102041.53;5017142;28;20567;-52
2023/05/08 04:07:16;;;;;;;;;;;;;;;13.06;100.00;102036.38;5019489;28;19985;-52
2023/05/08 04:09:50;;;;;;;;;;;;;;;13.05;100.00;102038.91;5017113;28;21440;-53
2023/05/08 04:12:30;;;;;;;;;;;;;;;13.05;100.00;102037.19;5019024;28;20377;-52
2023/05/08 04:15:04;;;;;;;;;;;;;;;13.05;100.00;102044.06;5023625;28;19969;-52
2023/05/08 04:17:42;;;;;;;;;;;;;;;13.06;100.00;102044.13;5023264;28;19947;-53
2023/05/08 04:20:11;;;;;;;;;;;;;;;13.08;100.00;102047.63;5024531;28;19922;-51
2023/05/08 04:22:37;;;;;;;;;;;;;;;13.09;100.00;102051.06;5020972;28;20329;-51
2023/05/08 04:25:05;;;;;;;;;;;;;;;13.11;100.00;102055.50;5025582;28;19921;-52
2023/05/08 04:27:31;;;;;;;;;;;;;;;13.13;100.00;102064.16;5021500;28;19932;-53
2023/05/08 04:29:56;;;;;;;;;;;;;;;13.15;100.00;102056.47;5022985;28;19921;-50
2023/05/08 04:32:22;;;;;;;;;;;;;;;13.18;100.00;102060.88;5022418;28;19917;-51
2023/05/08 04:34:48;;;;;;;;;;;;;;;13.18;100.00;102053.13;5020968;27;19924;-50
2023/05/08 04:37:27;;;;;;;;;;;;;;;13.18;100.00;102059.19;5021543;28;19921;-51
2023/05/08 04:39:52;;;;;;;;;;;;;;;13.18;100.00;102069.50;5016470;28;19922;-53
2023/05/08 04:42:17;;;;;;;;;;;;;;;13.21;100.00;102061.88;5021126;28;19981;-52
2023/05/08 04:44:43;;;;;;;;;;;;;;;13.24;100.00;102067.19;5019883;28;20036;-53
2023/05/08 04:47:08;;;;;;;;;;;;;;;13.26;100.00;102074.97;5022141;28;19962;-52
2023/05/08 04:49:33;;;;;;;;;;;;;;;13.28;100.00;102074.19;5021163;27;20450;-50
2023/05/08 04:51:59;;;;;;;;;;;;;;;13.32;100.00;102075.19;5020179;28;20368;-52
2023/05/08 04:54:24;;;;;;;;;;;;;;;13.34;100.00;102074.41;5020431;28;19990;-53
2023/05/08 04:56:49;;;;;;;;;;;;;;;13.37;100.00;102084.00;5023599;28;21246;-53
2023/05/08 04:59:14;;;;;;;;;;;;;;;13.38;100.00;102084.03;5020941;28;19929;-52
2023/05/08 05:01:40;;;;;;;;;;;;;;;13.39;100.00;102085.81;5022081;28;19936;-52
2023/05/08 05:04:06;;;;;;;;;;;;;;;13.38;100.00;102086.63;5021786;27;20681;-52
2023/05/08 05:06:32;;;;;;;;;;;;;;;13.40;100.00;102090.13;5020855;28;19936;-51
2023/05/08 05:08:57;;;;;;;;;;;;;;;13.42;100.00;102092.81;5022358;28;19929;-50
2023/05/08 05:11:23;;;;;;;;;;;;;;;13.42;100.00;102085.06;5020340;27;19970;-52
2023/05/08 05:13:48;;;;;;;;;;;;;;;13.44;100.00;102092.84;5021530;28;19944;-53
2023/05/08 05:16:13;;;;;;;;;;;;;;;13.43;100.00;102099.72;5022338;27;19935;-52
2023/05/08 05:18:38;;;;;;;;;;;;;;;13.43;100.00;102102.31;5021494;28;20047;-48
2023/05/08 05:21:03;;;;;;;;;;;;;;;13.45;100.00;102112.69;5091344;27;19929;-51
2023/05/08 05:23:29;;;;;;;;;;;;;;;13.47;100.00;102105.84;5024193;27;19921;-50
2023/05/08 05:25:54;;;;;;;;;;;;;;;13.48;100.00;102110.22;5018564;27;20582;-50
2023/05/08 05:28:19;;;;;;;;;;;;;;;13.52;100.00;102110.38;5018640;27;20001;-50
2023/05/08 05:30:48;;;;;;;;;;;;;;;13.53;100.00;102108.66;5047965;28;20004;-52
2023/05/08 05:33:13;;;;;;;;;;;;;;;13.55;100.00;102110.50;5022169;28;19922;-52
2023/05/08 05:35:38;;;;;;;;;;;;;;;13.57;100.00;102114.00;5020119;28;20012;-50
2023/05/08 05:38:04;;;;;;;;;;;;;;;13.59;100.00;102112.38;5018336;28;19982;-52
2023/05/08 05:40:29;;;;;;;;;;;;;;;13.62;100.00;102120.22;5020902;28;19925;-52
2023/05/08 05:42:54;;;;;;;;;;;;;;;13.66;100.00;102119.50;5021132;28;19928;-52
2023/05/08 05:45:20;;;;;;;;;;;;;;;13.71;100.00;102121.34;5023010;28;19929;-52
2023/05/08 05:47:48;;;;;;;;;;;;;;;13.73;100.00;102119.72;5021142;28;20583;-52
2023/05/08 05:50:14;;;;;;;;;;;;;;;13.76;100.00;102123.28;5024500;27;19928;-50
2023/05/08 05:52:39;;;;;;;;;;;;;;;13.79;100.00;102120.81;5020591;28;19917;-51
2023/05/08 05:55:04;;;;;;;;;;;;;;;13.82;100.00;102126.09;5021040;28;20311;-51
2023/05/08 05:57:29;;;;;;;;;;;;;;;13.87;100.00;102132.28;5020455;27;20303;-54
2023/05/08 05:59:55;;;;;;;;;;;;;;;13.92;100.00;102133.34;5020626;27;19932;-55
2023/05/08 06:02:20;;;;;;;;;;;;;;;13.97;100.00;102133.50;5021417;28;19966;-51
2023/05/08 06:04:46;;;;;;;;;;;;;;;14.03;100.00;102136.31;5026253;28;20402;-50
2023/05/08 06:07:11;;;;;;;;;;;;;;;14.07;100.00;102126.94;5022353;28;20375;-53
2023/05/08 06:09:36;;;;;;;;;;;;;;;14.04;100.00;102135.47;5021183;27;19958;-50
2023/05/08 06:12:01;;;;;;;;;;;;;;;14.05;100.00;102123.41;5021308;28;19925;-52
2023/05/08 06:14:27;;;;;;;;;;;;;;;14.08;100.00;102134.75;5019822;28;19929;-52
2023/05/08 06:16:52;;;;;;;;;;;;;;;14.09;100.00;102123.59;5018150;28;20363;-49
2023/05/08 06:19:17;;;;;;;;;;;;;;;14.14;100.00;102123.75;5021500;28;20287;-45
2023/05/08 06:21:42;;;;;;;;;;;;;;;14.18;100.00;102129.03;5019970;28;20281;-45
2023/05/08 06:24:08;;;;;;;;;;;;;;;14.20;100.00;102127.41;5021155;28;19921;-44
2023/05/08 06:26:33;;;;;;;;;;;;;;;14.22;100.00;102130.03;5018614;28;19990;-45
2023/05/08 06:28:58;;;;;;;;;;;;;;;14.24;100.00;102128.38;5020761;28;20545;-45
2023/05/08 06:31:23;;;;;;;;;;;;;;;14.27;100.00;102131.06;5019506;28;19963;-44
2023/05/08 06:33:49;;;;;;;;;;;;;;;14.29;100.00;102128.53;5019236;28;19925;-44
2023/05/08 06:36:14;;;;;;;;;;;;;;;14.32;100.00;102128.63;5019896;28;20379;-43
2023/05/08 06:38:39;;;;;;;;;;;;;;;14.37;100.00;102135.69;5018709;28;20537;-44
2023/05/08 06:41:05;;;;;;;;;;;;;;;14.45;100.00;102136.84;5019329;28;19921;-44
2023/05/08 06:43:30;;;;;;;;;;;;;;;14.52;100.00;102132.78;5021160;28;19932;-46
2023/05/08 06:45:55;;;;;;;;;;;;;;;14.59;100.00;102129.56;5019776;28;19925;-45
2023/05/08 06:48:21;;;;;;;;;;;;;;;14.66;100.00;102135.81;5018472;28;20377;-44
2023/05/08 06:50:46;;;;;;;;;;;;;;;14.71;100.00;102139.41;5019479;28;19981;-45
2023/05/08 06:53:12;;;;;;;;;;;;;;;14.73;100.00;102145.50;5021588;28;19947;-43
2023/05/08 06:55:37;;;;;;;;;;;;;;;14.79;100.00;102155.19;5019409;28;20446;-45
2023/05/08 06:58:02;;;;;;;;;;;;;;;14.83;100.00;102149.28;5020902;28;19936;-44
2023/05/08 07:00:28;;;;;;;;;;;;;;;14.86;100.00;102150.25;5017541;28;19931;-44
2023/05/08 07:02:53;;;;;;;;;;;;;;;14.90;100.00;102149.50;5019132;28;19921;-44
2023/05/08 07:05:18;;;;;;;;;;;;;;;14.92;100.00;102155.59;5019660;28;19925;-45
2023/05/08 07:07:44;;;;;;;;;;;;;;;14.94;100.00;102153.09;5019881;28;19932;-49
2023/05/08 07:10:09;;;;;;;;;;;;;;;14.92;100.00;102163.38;5019923;28;20012;-49
2023/05/08 07:12:35;;;;;;;;;;;;;;;14.91;100.00;102165.94;5017958;28;20037;-51
2023/05/08 07:15:00;;;;;;;;;;;;;;;14.89;100.00;102163.28;5019514;28;20399;-49
2023/05/08 07:17:25;;;;;;;;;;;;;;;14.89;100.00;102160.72;5019415;28;19924;-49
2023/05/08 07:19:51;;;;;;;;;;;;;;;14.89;100.00;102165.00;5019432;28;19996;-51
2023/05/08 07:22:16;;;;;;;;;;;;;;;14.89;100.00;102160.72;5019987;28;20323;-49
2023/05/08 07:24:41;;;;;;;;;;;;;;;14.91;100.00;102161.63;5016860;28;19921;-48
2023/05/08 07:27:07;;;;;;;;;;;;;;;14.90;100.00;102162.47;5028207;28;20593;-49
2023/05/08 07:29:34;;;;;;;;;;;;;;;14.90;100.00;102159.88;5023606;28;20036;-50
2023/05/08 07:32:00;;;;;;;;;;;;;;;14.91;100.00;102158.16;5036547;28;20023;-50
2023/05/08 07:34:25;;;;;;;;;;;;;;;14.94;100.00;102160.84;5017769;28;20040;-49
2023/05/08 07:36:50;;;;;;;;;;;;;;;14.97;100.00;102159.22;5019759;28;20434;-49
2023/05/08 07:39:15;;;;;;;;;;;;;;;15.02;100.00;102160.25;5018262;28;19925;-51
2023/05/08 07:41:41;;;;;;;;;;;;;;;15.10;100.00;102154.41;5018298;28;19955;-51
2023/05/08 07:44:06;;;;;;;;;;;;;;;15.19;100.00;102159.88;5019939;28;20361;-48
2023/05/08 07:46:31;;;;;;;;;;;;;;;15.24;100.00;102151.41;5021081;28;19958;-49
2023/05/08 07:48:57;;;;;;;;;;;;;;;15.31;100.00;102149.88;5020786;28;20015;-49
2023/05/08 07:51:22;;;;;;;;;;;;;;;15.35;100.00;102143.97;5022148;28;20299;-48
2023/05/08 07:53:49;;;;;;;;;;;;;;;15.44;100.00;102146.81;5028485;28;19925;-50
2023/05/08 07:56:15;;;;;;;;;;;;;;;15.51;100.00;102148.72;5024504;28;20327;-52
2023/05/08 07:58:41;;;;;;;;;;;;;;;15.61;100.00;102149.00;5024808;28;20391;-50
2023/05/08 08:01:06;;;;;;;;;;;;;;;15.72;100.00;102155.41;5026594;28;19968;-51
2023/05/08 08:03:31;;;;;;;;;;;;;;;15.86;100.00;102156.63;5027878;28;19956;-51
2023/05/08 08:05:57;;;;;;;;;;;;;;;15.97;100.00;102160.41;5027678;28;19994;-51
2023/05/08 08:08:22;;;;;;;;;;;;;;;16.05;100.00;102153.69;5026996;28;20372;-52
2023/05/08 08:10:48;;;;;;;;;;;;;;;16.20;100.00;102150.63;5023190;28;19927;-50
2023/05/08 08:13:13;;;;;;;;;;;;;;;16.33;100.00;102150.09;5021035;28;19921;-53
2023/05/08 08:15:39;;;;;;;;;;;;;;;16.35;100.00;102152.72;5035769;28;19940;-52
2023/05/08 08:18:04;;;;;;;;;;;;;;;16.48;100.00;102157.38;5023051;28;19984;-52
2023/05/08 08:20:29;;;;;;;;;;;;;;;16.66;100.00;102154.34;5021874;28;19928;-53
2023/05/08 08:22:54;;;;;;;;;;;;;;;16.84;100.00;102151.31;5022270;28;20805;-52
2023/05/08 08:25:20;;;;;;;;;;;;;;;17.10;100.00;102154.50;5022539;28;19925;-50
2023/05/08 08:27:45;;;;;;;;;;;;;;;17.33;100.00;102152.38;5020694;28;19932;-49
2023/05/08 08:30:11;;;;;;;;;;;;;;;17.54;100.00;102150.22;5022197;28;19925;-51
2023/05/08 08:32:36;;;;;;;;;;;;;;;17.75;100.00;102149.78;5021509;28;19921;-52
2023/05/08 08:35:02;;;;;;;;;;;;;;;17.97;100.00;102145.88;5021574;28;20287;-52
2023/05/08 08:37:27;;;;;;;;;;;;;;;18.09;100.00;102140.00;5045828;28;19947;-52
2023/05/08 08:39:53;;;;;;;;;;;;;;;18.15;100.00;102141.00;5021257;28;19961;-51
2023/05/08 08:42:18;;;;;;;;;;;;;;;18.25;100.00;102139.41;5022195;28;20380;-52
2023/05/08 08:44:43;;;;;;;;;;;;;;;18.35;100.00;102143.03;5021648;28;19958;-52
2023/05/08 08:47:10;;;;;;;;;;;;;;;18.40;100.00;102138.78;5021296;28;20016;-55
2023/05/08 08:49:40;;;;;;;;;;;;;;;18.46;100.00;102141.50;5021730;28;20000;-54
2023/05/08 08:52:21;;;;;;;;;;;;;;;18.54;100.00;102144.22;5020650;28;19985;-53
2023/05/08 08:54:48;;;;;;;;;;;;;;;18.60;100.00;102150.38;5021896;28;20303;-53
2023/05/08 08:57:13;;;;;;;;;;;;;;;18.62;100.00;102139.97;5024906;28;19924;-53
2023/05/08 08:59:39;;;;;;;;;;;;;;;18.65;100.00;102140.91;5020653;28;19925;-54
2023/05/08 09:02:07;;;;;;;;;;;;;;;18.72;100.00;102150.63;5022184;28;20442;-52
2023/05/08 09:04:33;;;;;;;;;;;;;;;18.78;100.00;102143.75;5020008;28;19942;-53
2023/05/08 09:06:58;;;;;;;;;;;;;;;18.86;100.00;102147.31;5020922;28;20288;-47
2023/05/08 09:09:23;;;;;;;;;;;;;;;18.95;100.00;102147.47;5021347;28;19917;-47
2023/05/08 09:11:50;;;;;;;;;;;;;;;19.06;100.00;102148.50;5021030;28;19925;-46
2023/05/08 09:14:15;;;;;;;;;;;;;;;19.20;100.00;102144.34;5021993;28;19974;-48
2023/05/08 09:16:41;;;;;;;;;;;;;;;19.31;100.00;102149.69;5021597;28;19925;-48
2023/05/08 09:19:06;;;;;;;;;;;;;;;19.22;96.85;102149.56;5021103;28;19967;-45
2023/05/08 09:21:32;;;;;;;;;;;;;;;19.07;98.91;102155.47;5025738;28;19955;-44
2023/05/08 09:24:01;;;;;;;;;;;;;;;18.93;100.00;102152.66;5024927;28;19992;-45
2023/05/08 09:26:27;;;;;;;;;;;;;;;18.78;98.34;102152.44;5024651;28;20371;-45
2023/05/08 09:29:06;;;;;;;;;;;;;;;18.64;100.00;102152.19;5027768;28;19921;-44
2023/05/08 09:31:35;;;;;;;;;;;;;;;18.57;100.00;102146.88;5026760;28;19921;-46
2023/05/08 09:34:01;;;;;;;;;;;;;;;18.56;100.00;102152.91;5027913;28;20036;-46
2023/05/08 09:36:30;;;;;;;;;;;;;;;18.58;100.00;102151.22;5024864;28;20525;-45
2023/05/08 09:38:56;;;;;;;;;;;;;;;18.62;100.00;102153.88;5015692;28;20359;-45
2023/05/08 09:41:22;;;;;;;;;;;;;;;18.70;100.00;102151.47;5026594;28;19977;-45
2023/05/08 09:44:01;;;;;;;;;;;;;;;18.77;100.00;102155.91;5020052;28;20098;-45
2023/05/08 09:46:27;;;;;;;;;;;;;;;18.73;97.63;102149.75;5039098;27;19929;-47
2023/05/08 09:48:53;;;;;;;;;;;;;;;18.67;100.00;102148.78;5020256;28;19936;-47
2023/05/08 09:51:19;;;;;;;;;;;;;;;18.68;100.00;102154.00;5020373;28;20028;-47
2023/05/08 09:53:44;;;;;;;;;;;;;;;18.80;100.00;102152.44;5021997;28;20463;-45
2023/05/08 09:56:09;;;;;;;;;;;;;;;18.92;100.00;102153.50;5020078;28;20933;-47
2023/05/08 09:58:43;;;;;;;;;;;;;;;19.06;100.00;102155.44;5018476;28;19994;-45
2023/05/08 10:01:44;;;;;;;;;;;;;;;19.10;98.53;102152.88;5019492;28;19952;-46
2023/05/08 10:04:09;;;;;;;;;;;;;;;19.05;100.00;102157.19;4979709;28;20276;-44
2023/05/08 10:06:35;;;;;;;;;;;;;;;19.12;100.00;102153.78;5012708;28;19933;-43
2023/05/08 10:09:15;;;;;;;;;;;;;;;19.29;100.00;102154.91;5024701;28;20023;-46
2023/05/08 10:11:50;;;;;;;;;;;;;;;19.24;99.03;102153.97;5022588;28;20016;-45
2023/05/08 10:14:15;;;;;;;;;;;;;;;19.25;99.72;102158.31;5021061;28;20388;-45
2023/05/08 10:16:42;;;;;;;;;;;;;;;19.21;99.09;102156.50;5019297;28;19927;-45
2023/05/08 10:19:11;;;;;;;;;;;;;;;19.10;98.08;102168.53;5022247;27;19921;-48
2023/05/08 10:21:39;;;;;;;;;;;;;;;19.01;99.05;102164.06;5024827;27;19921;-48
2023/05/08 10:24:05;;;;;;;;;;;;;;;18.95;99.62;102160.50;5022300;27;19917;-46
2023/05/08 10:26:32;;;;;;;;;;;;;;;18.87;100.00;102165.63;5025930;28;20412;-45
2023/05/08 10:29:03;;;;;;;;;;;;;;;18.83;99.78;102165.53;5021762;28;19921;-45
2023/05/08 10:31:32;;;;;;;;;;;;;;;18.83;99.93;102168.16;5023351;27;19944;-45
2023/05/08 10:34:00;;;;;;;;;;;;;;;18.88;100.00;102166.50;5019937;28;19926;-46
2023/05/08 10:36:27;;;;;;;;;;;;;;;18.95;99.41;102161.38;5018786;28;20348;-50
2023/05/08 10:38:52;;;;;;;;;;;;;;;18.99;99.43;102164.91;5027968;27;20004;-48
2023/05/08 10:41:18;;;;;;;;;;;;;;;19.05;99.52;102165.00;5029895;27;20028;-46
2023/05/08 10:43:43;;;;;;;;;;;;;;;19.07;98.68;102165.88;5025850;28;20283;-46
2023/05/08 10:46:17;;;;;;;;;;;;;;;19.06;99.69;102161.53;5018308;28;19925;-46
2023/05/08 10:48:50;;;;;;;;;;;;;;;19.03;97.21;102161.47;5018908;28;19925;-45
2023/05/08 10:51:22;;;;;;;;;;;;;;;19.00;99.06;102158.84;5018334;28;20026;-46
2023/05/08 10:53:52;;;;;;;;;;;;;;;18.99;97.85;102164.91;5023001;28;19953;-50
2023/05/08 10:56:25;;;;;;;;;;;;;;;18.93;99.42;102159.63;5029214;27;19923;-47
2023/05/08 10:58:54;;;;;;;;;;;;;;;18.93;98.58;102160.50;5024086;28;20391;-46
2023/05/08 11:01:20;;;;;;;;;;;;;;;19.01;98.48;102151.03;5027890;28;19918;-46
2023/05/08 11:03:46;;;;;;;;;;;;;;;19.08;98.90;102148.50;5023536;28;19932;-46
2023/05/08 11:06:12;;;;;;;;;;;;;;;19.19;96.93;102147.81;5023618;28;20063;-46
2023/05/08 11:08:48;;;;;;;;;;;;;;;19.37;96.72;102148.88;5032403;28;20008;-48
2023/05/08 11:11:18;;;;;;;;;;;;;;;19.54;96.51;102150.84;5020307;28;20061;-45
2023/05/08 11:13:47;;;;;;;;;;;;;;;19.69;96.43;102150.16;5021740;28;20354;-46
2023/05/08 11:16:12;;;;;;;;;;;;;;;19.81;95.89;102146.81;5020845;28;19967;-45
2023/05/08 11:18:57;;;;;;;;;;;;;;;19.97;96.34;102140.03;5034335;28;20076;-45
2023/05/08 11:21:22;;;;;;;;;;;;;;;20.07;95.59;102139.22;5025402;28;19966;-46
2023/05/08 11:23:55;;;;;;;;;;;;;;;20.18;95.40;102139.31;5025030;28;20002;-45
2023/05/08 11:26:20;;;;;;;;;;;;;;;20.32;93.18;102132.47;5025693;28;19951;-45
2023/05/08 11:28:52;;;;;;;;;;;;;;;20.24;92.13;102127.19;5024883;28;19952;-47
2023/05/08 11:31:17;;;;;;;;;;;;;;;20.19;90.87;102133.22;5110776;28;20391;-46
2023/05/08 11:33:42;;;;;;;;;;;;;;;20.11;91.96;102125.34;5025661;28;19924;-44
2023/05/08 11:36:21;;;;;;;;;;;;;;;20.05;91.79;102122.69;5025780;28;20623;-45
2023/05/08 11:39:11;;;;;;;;;;;;;;;20.00;90.62;102124.38;5024047;28;20050;-47
2023/05/08 11:41:38;;;;;;;;;;;;;;;19.96;90.80;102125.19;5024934;28;19966;-45
2023/05/08 11:44:12;;;;;;;;;;;;;;;20.06;91.00;102121.81;5026051;28;19928;-44
2023/05/08 11:46:52;;;;;;;;;;;;;;;20.25;89.31;102115.88;5022316;28;19932;-45
2023/05/08 11:49:18;;;;;;;;;;;;;;;20.29;89.66;102122.88;5024776;28;19928;-45
2023/05/08 11:51:44;;;;;;;;;;;;;;;20.26;89.16;102119.34;5025372;28;19913;-44
2023/05/08 11:54:14;;;;;;;;;;;;;;;20.20;91.27;102107.13;5010577;28;19925;-46
2023/05/08 11:56:40;;;;;;;;;;;;;;;20.25;89.51;102110.66;5024715;28;19917;-44
2023/05/08 11:59:07;;;;;;;;;;;;;;;20.35;89.19;102103.78;5023575;28;19940;-46
2023/05/08 12:01:33;;;;;;;;;;;;;;;20.28;89.13;102097.63;5025129;28;20291;-47
2023/05/08 12:04:02;;;;;;;;;;;;;;;20.39;86.23;102099.47;5025260;28;19941;-47
2023/05/08 12:06:28;;;;;;;;;;;;;;;20.60;86.04;102102.22;5023641;28;19933;-47
2023/05/08 12:08:53;;;;;;;;;;;;;;;20.64;86.17;102105.75;5025259;28;19924;-45
2023/05/08 12:11:25;;;;;;;;;;;;;;;20.88;87.20;102098.06;5023499;28;19921;-45
2023/05/08 12:13:50;;;;;;;;;;;;;;;20.99;82.09;102101.59;5025255;28;19929;-48
2023/05/08 12:16:16;;;;;;;;;;;;;;;21.09;82.40;102098.13;5025463;28;19924;-44
2023/05/08 12:18:42;;;;;;;;;;;;;;;21.42;81.00;102097.44;5024119;28;20454;-44
2023/05/08 12:21:09;;;;;;;;;;;;;;;21.52;82.53;102095.69;5022773;28;19928;-45
2023/05/08 12:23:34;;;;;;;;;;;;;;;21.50;79.58;102086.09;5024521;28;19929;-46
2023/05/08 12:26:00;;;;;;;;;;;;;;;21.45;82.03;102096.53;5024484;28;19974;-45
2023/05/08 12:28:25;;;;;;;;;;;;;;;21.59;83.00;102091.34;5023966;28;19925;-45